| time (UTC) | temp C | wind direction | speed KPH | gust KPH | rain 1hr cm | rain 24hr cm | rain mn cm | humidity % | barometer mb |
| 20260504211057 | 11 | 344 | 20.9 | 41.8 | 0.00 | 0.00 | 0.00 | 44 | 1010.6 |
| 20260504210557 | 11 | 26 | 22.5 | 32.2 | 0.00 | 0.00 | 0.00 | 44 | 1010.6 |
| 20260504210057 | 12 | 31 | 19.3 | 40.2 | 0.00 | 0.00 | 0.00 | 42 | 1010.5 |
| 20260504205556 | 12 | 37 | 17.7 | 40.2 | 0.00 | 0.00 | 0.00 | 38 | 1010.5 |
| 20260504205054 | 13 | 5 | 17.7 | 35.4 | 0.00 | 0.00 | 0.00 | 37 | 1010.5 |
| 20260504204559 | 15 | 29 | 12.9 | 32.2 | 0.00 | 0.00 | 0.00 | 33 | 1010.4 |
| 20260504204053 | 16 | 17 | 11.3 | 32.2 | 0.00 | 0.00 | 0.00 | 31 | 1010.6 |
| 20260504203554 | 16 | 173 | 8.0 | 27.4 | 0.00 | 0.00 | 0.00 | 32 | 1010.6 |
| 20260504203153 | 16 | 240 | 12.9 | 27.4 | 0.00 | 0.00 | 0.00 | 32 | 1010.6 |
| 20260504202553 | 16 | 245 | 14.5 | 30.6 | 0.00 | 0.00 | 0.00 | 33 | 1010.5 |
| 20260504202053 | 16 | 230 | 19.3 | 32.2 | 0.00 | 0.00 | 0.00 | 32 | 1010.5 |
| 20260504201553 | 15 | 194 | 16.1 | 37.0 | 0.00 | 0.00 | 0.00 | 33 | 1010.5 |
| 20260504201052 | 15 | 202 | 20.9 | 38.6 | 0.00 | 0.00 | 0.00 | 33 | 1010.5 |
| 20260504200552 | 14 | 167 | 25.7 | 41.8 | 0.00 | 0.00 | 0.00 | 34 | 1010.7 |
| 20260504200053 | 14 | 215 | 25.7 | 41.8 | 0.00 | 0.00 | 0.00 | 36 | 1010.7 |
| 20260504195552 | 14 | 200 | 29.0 | 53.1 | 0.00 | 0.00 | 0.00 | 36 | 1010.6 |
| 20260504195053 | 14 | 202 | 41.8 | 53.1 | 0.00 | 0.00 | 0.00 | 36 | 1010.6 |
| 20260504194556 | 14 | 179 | 35.4 | 54.7 | 0.00 | 0.00 | 0.00 | 36 | 1010.6 |
| 20260504194051 | 14 | 189 | 40.2 | 54.7 | 0.00 | 0.00 | 0.00 | 36 | 1010.6 |
| 20260504193553 | 15 | 184 | 25.7 | 43.5 | 0.00 | 0.00 | 0.00 | 31 | 1010.7 |
| 20260504193050 | 15 | 225 | 24.1 | 41.8 | 0.00 | 0.00 | 0.00 | 28 | 1010.6 |
| 20260504192549 | 15 | 244 | 27.4 | 41.8 | 0.00 | 0.00 | 0.00 | 27 | 1010.5 |
| 20260504192050 | 15 | 230 | 27.4 | 38.6 | 0.00 | 0.00 | 0.00 | 29 | 1010.5 |
| 20260504191549 | 15 | 189 | 22.5 | 38.6 | 0.00 | 0.00 | 0.00 | 29 | 1010.6 |
| 20260504191049 | 15 | 235 | 27.4 | 38.6 | 0.00 | 0.00 | 0.00 | 27 | 1010.6 |
| 20260504190549 | 16 | 230 | 19.3 | 29.0 | 0.00 | 0.00 | 0.00 | 28 | 1010.7 |
| 20260504190048 | 16 | 254 | 6.4 | 17.7 | 0.00 | 0.00 | 0.00 | 29 | 1010.8 |
| 20260504185547 | 16 | 322 | 4.8 | 22.5 | 0.00 | 0.00 | 0.00 | 29 | 1010.9 |
| 20260504185046 | 16 | 240 | 16.1 | 24.1 | 0.00 | 0.00 | 0.00 | 29 | 1010.9 |
| 20260504184546 | 16 | 294 | 14.5 | 32.2 | 0.00 | 0.00 | 0.00 | 27 | 1011.0 |
| 20260504184046 | 17 | 290 | 12.9 | 32.2 | 0.00 | 0.00 | 0.00 | 27 | 1011.0 |
| 20260504183545 | 17 | 280 | 14.5 | 22.5 | 0.00 | 0.00 | 0.00 | 26 | 1011.1 |
| 20260504183045 | 17 | 297 | 11.3 | 25.7 | 0.00 | 0.00 | 0.00 | 28 | 1011.1 |
| 20260504182542 | 17 | 322 | 11.3 | 25.7 | 0.00 | 0.00 | 0.00 | 28 | 1011.2 |
| 20260504182042 | 16 | 300 | 9.7 | 25.7 | 0.00 | 0.00 | 0.00 | 30 | 1011.3 |
| 20260504181540 | 16 | 325 | 16.1 | 25.7 | 0.00 | 0.00 | 0.00 | 30 | 1011.5 |
| 20260504181039 | 15 | 270 | 12.9 | 25.7 | 0.00 | 0.00 | 0.00 | 32 | 1011.7 |
| 20260504180537 | 15 | 302 | 16.1 | 25.7 | 0.00 | 0.00 | 0.00 | 32 | 1011.8 |
| 20260504180045 | 15 | 226 | 11.3 | 25.7 | 0.00 | 0.00 | 0.00 | 32 | 1011.9 |
| 20260504175535 | 15 | 264 | 14.5 | 27.4 | 0.00 | 0.00 | 0.00 | 32 | 1012.0 |
| 20260504175035 | 15 | 269 | 16.1 | 29.0 | 0.00 | 0.00 | 0.00 | 33 | 1012.1 |
| 20260504174532 | 14 | 273 | 17.7 | 30.6 | 0.00 | 0.00 | 0.00 | 34 | 1012.3 |
| 20260504174032 | 14 | 287 | 19.3 | 27.4 | 0.00 | 0.00 | 0.00 | 34 | 1012.3 |
| 20260504173531 | 13 | 278 | 17.7 | 27.4 | 0.00 | 0.00 | 0.00 | 35 | 1012.3 |
| 20260504173032 | 13 | 283 | 16.1 | 25.7 | 0.00 | 0.00 | 0.00 | 35 | 1012.4 |
| 20260504172526 | 13 | 271 | 9.7 | 22.5 | 0.00 | 0.00 | 0.00 | 36 | 1012.5 |
| 20260504172025 | 13 | 323 | 12.9 | 25.7 | 0.00 | 0.00 | 0.00 | 36 | 1012.6 |
| 20260504171530 | 13 | 304 | 16.1 | 22.5 | 0.00 | 0.00 | 0.00 | 36 | 1012.7 |
| 20260504171022 | 12 | 275 | 14.5 | 27.4 | 0.00 | 0.00 | 0.00 | 36 | 1012.7 |
| 20260504170520 | 12 | 235 | 11.3 | 35.4 | 0.00 | 0.00 | 0.00 | 37 | 1012.7 |
| 20260504151000 | 12 | 240 | 14.5 | 27.4 | 0.00 | 0.00 | 0.00 | 34 | 1012.5 |
| 20260504150501 | 12 | 230 | 16.1 | 27.4 | 0.00 | 0.00 | 0.00 | 35 | 1012.5 |
| 20260504150111 | 12 | 175 | 12.9 | 25.7 | 0.00 | 0.00 | 0.00 | 34 | 1012.7 |
| 20260504141051 | 11 | 240 | 27.4 | 35.4 | 0.00 | 0.00 | 0.00 | 33 | 1012.5 |
| 20260504140550 | 11 | 247 | 25.7 | 33.8 | 0.00 | 0.00 | 0.00 | 32 | 1012.6 |
| 20260504130543 | 11 | 257 | 6.4 | 12.9 | 0.00 | 0.00 | 0.00 | 28 | 1012.8 |
| 20260504110527 | 11 | 246 | 20.9 | 27.4 | 0.00 | 0.00 | 0.00 | 26 | 1012.1 |
| 20260504100522 | 10 | 211 | 12.9 | 19.3 | 0.00 | 0.00 | 0.00 | 28 | 1012.4 |
| 20260504082005 | 10 | 235 | 4.8 | 8.0 | 0.00 | 0.00 | 0.00 | 29 | 1013.2 |
| 20260504081505 | 10 | 291 | 3.2 | 8.0 | 0.00 | 0.00 | 0.00 | 28 | 1013.2 |
| 20260504081008 | 10 | 291 | 0.0 | 16.1 | 0.00 | 0.00 | 0.00 | 28 | 1013.3 |
| 20260504080505 | 10 | 284 | 8.0 | 16.1 | 0.00 | 0.00 | 0.00 | 27 | 1013.3 |
| 20260504050543 | 10 | 192 | 6.4 | 14.5 | 0.00 | 0.00 | 0.00 | 35 | 1014.2 |
| 20260504045542 | 10 | 186 | 6.4 | 14.5 | 0.00 | 0.00 | 0.00 | 36 | 1014.2 |
| 20260504045043 | 10 | 208 | 6.4 | 14.5 | 0.00 | 0.00 | 0.00 | 36 | 1014.2 |
| 20260504044542 | 10 | 208 | 6.4 | 12.9 | 0.00 | 0.00 | 0.00 | 36 | 1014.3 |
| 20260504044041 | 10 | 205 | 4.8 | 12.9 | 0.00 | 0.00 | 0.00 | 35 | 1014.3 |
| 20260504043541 | 11 | 267 | 6.4 | 12.9 | 0.00 | 0.00 | 0.00 | 34 | 1014.3 |
| 20260504043041 | 10 | 259 | 6.4 | 12.9 | 0.00 | 0.00 | 0.00 | 34 | 1014.3 |
| 20260504042541 | 10 | 190 | 4.8 | 8.0 | 0.00 | 0.00 | 0.00 | 36 | 1014.3 |
| 20260504042040 | 10 | 235 | 4.8 | 9.7 | 0.00 | 0.00 | 0.00 | 35 | 1014.3 |
| 20260504041540 | 11 | 207 | 4.8 | 12.9 | 0.00 | 0.00 | 0.00 | 35 | 1014.3 |
| 20260504041039 | 11 | 215 | 3.2 | 16.1 | 0.00 | 0.00 | 0.00 | 34 | 1014.4 |
| 20260504040541 | 11 | 200 | 8.0 | 16.1 | 0.00 | 0.00 | 0.00 | 34 | 1014.4 |
| 20260504040100 | 12 | 206 | 8.0 | 16.1 | 0.00 | 0.00 | 0.00 | 33 | 1014.4 |
| 20260504035539 | 12 | 235 | 11.3 | 20.9 | 0.00 | 0.00 | 0.00 | 32 | 1014.3 |
| 20260504035039 | 12 | 235 | 12.9 | 22.5 | 0.00 | 0.00 | 0.00 | 32 | 1014.4 |
| 20260504034540 | 12 | 235 | 16.1 | 22.5 | 0.00 | 0.00 | 0.00 | 33 | 1014.4 |
| 20260504034038 | 12 | 210 | 8.0 | 22.5 | 0.00 | 0.00 | 0.00 | 33 | 1014.5 |
| 20260504033537 | 12 | 240 | 16.1 | 22.5 | 0.00 | 0.00 | 0.00 | 33 | 1014.5 |
| 20260504033037 | 12 | 244 | 14.5 | 20.9 | 0.00 | 0.00 | 0.00 | 34 | 1014.5 |
| 20260504032538 | 12 | 230 | 12.9 | 17.7 | 0.00 | 0.00 | 0.00 | 34 | 1014.5 |
| 20260504032037 | 12 | 191 | 11.3 | 19.3 | 0.00 | 0.00 | 0.00 | 34 | 1014.5 |
| 20260504031538 | 12 | 196 | 14.5 | 19.3 | 0.00 | 0.00 | 0.00 | 33 | 1014.5 |
| 20260504031037 | 12 | 202 | 14.5 | 19.3 | 0.00 | 0.00 | 0.00 | 33 | 1014.4 |
| 20260504030536 | 12 | 230 | 12.9 | 19.3 | 0.00 | 0.00 | 0.00 | 33 | 1014.5 |
| 20260504030036 | 12 | 208 | 8.0 | 19.3 | 0.00 | 0.00 | 0.00 | 33 | 1014.4 |
| 20260504025536 | 12 | 203 | 9.7 | 19.3 | 0.00 | 0.00 | 0.00 | 33 | 1014.4 |
| 20260504025038 | 12 | 221 | 11.3 | 24.1 | 0.00 | 0.00 | 0.00 | 33 | 1014.4 |
| 20260504024534 | 12 | 235 | 17.7 | 24.1 | 0.00 | 0.00 | 0.00 | 32 | 1014.4 |
| 20260504024034 | 12 | 225 | 14.5 | 24.1 | 0.00 | 0.00 | 0.00 | 32 | 1014.3 |
| 20260504023535 | 12 | 250 | 14.5 | 22.5 | 0.00 | 0.00 | 0.00 | 32 | 1014.3 |
| 20260504023034 | 12 | 240 | 16.1 | 22.5 | 0.00 | 0.00 | 0.00 | 31 | 1014.3 |
| 20260504022537 | 12 | 244 | 14.5 | 19.3 | 0.00 | 0.00 | 0.00 | 31 | 1014.4 |
| 20260504022034 | 13 | 235 | 9.7 | 17.7 | 0.00 | 0.00 | 0.00 | 31 | 1014.4 |
| 20260504021534 | 13 | 240 | 11.3 | 17.7 | 0.00 | 0.00 | 0.00 | 30 | 1014.3 |
| 20260504021033 | 13 | 201 | 6.4 | 20.9 | 0.00 | 0.00 | 0.00 | 30 | 1014.2 |
| 20260504020534 | 13 | 197 | 14.5 | 24.1 | 0.00 | 0.00 | 0.00 | 30 | 1014.2 |
| 20260504020035 | 13 | 209 | 17.7 | 27.4 | 0.00 | 0.00 | 0.00 | 29 | 1014.1 |
| 20260504015533 | 13 | 187 | 22.5 | 27.4 | 0.00 | 0.00 | 0.00 | 29 | 1014.1 |
| 20260504015032 | 13 | 200 | 17.7 | 22.5 | 0.00 | 0.00 | 0.00 | 29 | 1014.1 |
| 20260504014532 | 13 | 202 | 16.1 | 20.9 | 0.00 | 0.00 | 0.00 | 29 | 1014.1 |
| 20260504014032 | 14 | 200 | 11.3 | 20.9 | 0.00 | 0.00 | 0.00 | 28 | 1014.1 |
| 20260504013532 | 14 | 200 | 11.3 | 22.5 | 0.00 | 0.00 | 0.00 | 26 | 1014.0 |
| 20260504013033 | 15 | 235 | 17.7 | 27.4 | 0.00 | 0.00 | 0.00 | 25 | 1014.0 |
| 20260504012536 | 15 | 251 | 16.1 | 33.8 | 0.00 | 0.00 | 0.00 | 25 | 1013.9 |
| 20260504012032 | 15 | 263 | 22.5 | 33.8 | 0.00 | 0.00 | 0.00 | 25 | 1013.9 |
| 20260504011532 | 15 | 230 | 17.7 | 32.2 | 0.00 | 0.00 | 0.00 | 25 | 1013.9 |
| 20260504011032 | 15 | 268 | 17.7 | 32.2 | 0.00 | 0.00 | 0.00 | 25 | 1013.9 |
| 20260504010531 | 15 | 240 | 16.1 | 35.4 | 0.00 | 0.00 | 0.00 | 26 | 1014.0 |
| 20260504010031 | 15 | 244 | 22.5 | 35.4 | 0.00 | 0.00 | 0.00 | 26 | 1013.8 |
| 20260504005530 | 14 | 240 | 17.7 | 29.0 | 0.00 | 0.00 | 0.00 | 27 | 1014.0 |
| 20260504005031 | 15 | 271 | 17.7 | 33.8 | 0.00 | 0.00 | 0.00 | 28 | 1014.0 |
| 20260504004540 | 15 | 281 | 12.9 | 41.8 | 0.00 | 0.00 | 0.00 | 28 | 1014.3 |
| 20260504004029 | 15 | 212 | 27.4 | 48.3 | 0.00 | 0.00 | 0.00 | 28 | 1014.2 |
| 20260504003532 | 15 | 235 | 30.6 | 48.3 | 0.00 | 0.00 | 0.00 | 28 | 1014.3 |
| 20260504003030 | 15 | 281 | 30.6 | 48.3 | 0.00 | 0.00 | 0.00 | 28 | 1014.3 |
| 20260504002528 | 15 | 244 | 35.4 | 48.3 | 0.00 | 0.00 | 0.00 | 28 | 1014.1 |
| 20260504002027 | 15 | 235 | 33.8 | 48.3 | 0.00 | 0.00 | 0.00 | 28 | 1014.2 |
| 20260504001527 | 15 | 267 | 24.1 | 40.2 | 0.00 | 0.00 | 0.00 | 27 | 1014.5 |
| 20260504001028 | 16 | 259 | 17.7 | 30.6 | 0.00 | 0.00 | 0.00 | 27 | 1014.4 |
| 20260504000526 | 16 | 235 | 22.5 | 35.4 | 0.00 | 0.00 | 0.00 | 27 | 1014.5 |
| 20260504000026 | 15 | 262 | 25.7 | 33.8 | 0.00 | 0.00 | 0.00 | 28 | 1014.3 |
| 20260503235525 | 14 | 205 | 17.7 | 45.1 | 0.00 | 0.00 | 0.00 | 30 | 1014.3 |
| 20260503235027 | 15 | 235 | 27.4 | 46.7 | 0.00 | 0.00 | 0.00 | 28 | 1014.6 |
| 20260503234527 | 15 | 240 | 33.8 | 46.7 | 0.00 | 0.00 | 0.00 | 27 | 1014.6 |
| 20260503234024 | 15 | 244 | 14.5 | 29.0 | 0.00 | 0.00 | 0.00 | 27 | 1014.9 |
| 20260503233524 | 15 | 269 | 8.0 | 20.9 | 0.00 | 0.00 | 0.00 | 28 | 1015.0 |
| 20260503233024 | 15 | 282 | 12.9 | 20.9 | 0.00 | 0.00 | 0.00 | 27 | 1015.0 |
| 20260503232526 | 15 | 317 | 8.0 | 22.5 | 0.00 | 0.00 | 0.00 | 27 | 1015.0 |
| 20260503232023 | 15 | 321 | 9.7 | 20.9 | 0.00 | 0.00 | 0.00 | 27 | 1014.9 |
| 20260503231523 | 15 | 290 | 8.0 | 24.1 | 0.00 | 0.00 | 0.00 | 27 | 1014.9 |
| 20260503231025 | 15 | 340 | 12.9 | 24.1 | 0.00 | 0.00 | 0.00 | 26 | 1014.7 |
| 20260503230524 | 16 | 312 | 9.7 | 19.3 | 0.00 | 0.00 | 0.00 | 26 | 1014.6 |
| 20260503230028 | 16 | 340 | 6.4 | 22.5 | 0.00 | 0.00 | 0.00 | 26 | 1014.6 |
| 20260503225525 | 16 | 336 | 9.7 | 22.5 | 0.00 | 0.00 | 0.00 | 25 | 1014.7 |
| 20260503225024 | 17 | 338 | 8.0 | 19.3 | 0.00 | 0.00 | 0.00 | 26 | 1014.6 |
| 20260503224524 | 16 | 284 | 3.2 | 24.1 | 0.00 | 0.00 | 0.00 | 27 | 1014.7 |
| 20260503224022 | 16 | 337 | 12.9 | 24.1 | 0.00 | 0.00 | 0.00 | 26 | 1014.6 |
| 20260503223622 | 16 | 315 | 9.7 | 25.7 | 0.00 | 0.00 | 0.00 | 27 | 1014.6 |
| 20260503223021 | 16 | 291 | 9.7 | 29.0 | 0.00 | 0.00 | 0.00 | 27 | 1014.5 |
| 20260503222521 | 16 | 311 | 17.7 | 29.0 | 0.00 | 0.00 | 0.00 | 26 | 1014.4 |
| 20260503222020 | 16 | 346 | 16.1 | 38.6 | 0.00 | 0.00 | 0.00 | 27 | 1014.6 |
| 20260503221520 | 15 | 306 | 22.5 | 38.6 | 0.00 | 0.00 | 0.00 | 28 | 1014.6 |
| 20260503221020 | 16 | 304 | 16.1 | 35.4 | 0.00 | 0.00 | 0.00 | 26 | 1014.7 |
| 20260503220523 | 17 | 336 | 22.5 | 33.8 | 0.00 | 0.00 | 0.00 | 24 | 1014.6 |
| 20260503220019 | 17 | 302 | 4.8 | 17.7 | 0.00 | 0.00 | 0.00 | 22 | 1014.8 |
| 20260503215517 | 17 | 323 | 4.8 | 19.3 | 0.00 | 0.00 | 0.00 | 22 | 1015.0 |
| 20260503215017 | 17 | 321 | 8.0 | 19.3 | 0.00 | 0.00 | 0.00 | 21 | 1015.0 |
| 20260503214516 | 17 | 310 | 11.3 | 20.9 | 0.00 | 0.00 | 0.00 | 22 | 1015.1 |
| 20260503214017 | 17 | 283 | 12.9 | 37.0 | 0.00 | 0.00 | 0.00 | 22 | 1015.4 |
| 20260503213514 | 16 | 293 | 9.7 | 37.0 | 0.00 | 0.00 | 0.00 | 24 | 1015.5 |
| 20260503213018 | 16 | 263 | 22.5 | 38.6 | 0.00 | 0.00 | 0.00 | 24 | 1015.7 |
| 20260503212516 | 16 | 186 | 27.4 | 40.2 | 0.00 | 0.00 | 0.00 | 23 | 1015.8 |
| 20260503212014 | 16 | 273 | 30.6 | 43.5 | 0.00 | 0.00 | 0.00 | 22 | 1015.6 |
| 20260503211513 | 16 | 292 | 27.4 | 43.5 | 0.00 | 0.00 | 0.00 | 21 | 1015.7 |